Time;durP1;ratioP1;P1;durP2;ratioP2;P2;SDS_P1;SDS_P2;PMS_P1;PMS_P2;Temp;Humidity;BMP_temperature;BMP_pressure;BME280_temperature;BME280_humidity;BME280_pressure;Samples;Min_cycle;Max_cycle;Signal;HPM_P1;HPM_P2
2022/01/05 00:00:05;;;;;;;9.77;2.53;;;;;;;3.18;89.56;100003.88;5091350;28;20383;-74
2022/01/05 00:02:30;;;;;;;7.40;1.92;;;;;;;3.13;89.50;100009.66;5092519;28;20055;-73
2022/01/05 00:04:55;;;;;;;9.88;2.40;;;;;;;3.10;89.65;100006.53;5091183;28;20423;-73
2022/01/05 00:07:21;;;;;;;4.03;1.55;;;;;;;3.08;89.70;100010.16;5090987;28;20395;-73
2022/01/05 00:09:46;;;;;;;6.28;1.63;;;;;;;3.08;89.51;100014.59;5092317;28;20036;-74
2022/01/05 00:12:11;;;;;;;3.50;1.35;;;;;;;3.06;89.31;100013.94;5092579;28;20062;-73
2022/01/05 00:14:37;;;;;;;10.75;2.35;;;;;;;3.05;89.32;100017.56;5092371;28;20031;-73
2022/01/05 00:17:02;;;;;;;5.53;2.00;;;;;;;2.99;89.17;100011.16;5092276;28;20395;-73
2022/01/05 00:19:28;;;;;;;4.45;1.30;;;;;;;2.98;89.45;100014.78;5074500;28;20123;-73
2022/01/05 00:21:53;;;;;;;6.07;1.85;;;;;;;2.93;88.52;100011.81;5092093;28;20501;-74
2022/01/05 00:24:19;;;;;;;6.72;1.65;;;;;;;2.92;88.58;100012.81;5091877;28;20039;-73
2022/01/05 00:26:44;;;;;;;4.95;2.03;;;;;;;2.85;88.78;100012.66;5092433;28;20030;-73
2022/01/05 00:29:10;;;;;;;2.22;1.25;;;;;;;2.81;89.29;100013.19;5090650;28;20127;-74
2022/01/05 00:31:35;;;;;;;6.72;1.75;;;;;;;2.72;88.92;100006.25;5090601;28;20059;-73
2022/01/05 00:34:00;;;;;;;6.28;2.58;;;;;;;2.71;88.99;100013.34;5092374;28;20387;-73
2022/01/05 00:36:26;;;;;;;3.55;2.40;;;;;;;2.64;88.72;100017.63;5091743;28;20589;-73
2022/01/05 00:38:51;;;;;;;10.80;3.42;;;;;;;2.62;88.37;100015.16;5090317;28;20588;-73
2022/01/05 00:41:16;;;;;;;3.53;1.90;;;;;;;2.60;88.21;100017.13;5091852;28;20028;-74
2022/01/05 00:43:42;;;;;;;6.35;1.60;;;;;;;2.50;88.21;100005.13;5091813;28;20036;-73
2022/01/05 00:46:08;;;;;;;10.25;2.33;;;;;;;2.56;88.48;100026.34;5091660;28;20032;-73
2022/01/05 00:48:34;;;;;;;14.23;5.00;;;;;;;2.54;88.22;100028.34;5091619;28;20028;-73
2022/01/05 00:51:05;;;;;;;11.75;2.75;;;;;;;2.46;87.65;100024.88;5091409;28;20032;-73
2022/01/05 00:53:31;;;;;;;4.47;1.85;;;;;;;2.48;87.47;100028.97;5090311;28;20042;-73
2022/01/05 00:55:56;;;;;;;9.13;2.83;;;;;;;2.36;86.99;100017.97;5091492;28;20032;-73
2022/01/05 00:58:22;;;;;;;4.07;1.60;;;;;;;2.50;87.31;100047.25;5091324;28;20411;-73
2022/01/05 01:00:47;;;;;;;7.20;2.10;;;;;;;2.48;87.04;100041.31;5090304;28;20115;-73
2022/01/05 01:03:12;;;;;;;12.02;3.10;;;;;;;2.48;87.12;100055.28;5091393;28;20070;-74
2022/01/05 01:05:38;;;;;;;3.63;1.73;;;;;;;2.48;87.00;100046.59;5071895;28;20128;-73
2022/01/05 01:08:03;;;;;;;6.82;1.55;;;;;;;2.37;87.16;100035.38;5071853;28;20097;-73
2022/01/05 01:10:29;;;;;;;11.32;3.45;;;;;;;2.45;86.91;100046.91;5090797;28;20036;-73
2022/01/05 01:12:54;;;;;;;7.88;2.08;;;;;;;2.45;86.94;100055.63;5091320;28;20056;-73
2022/01/05 01:15:20;;;;;;;10.75;3.92;;;;;;;2.41;86.87;100059.56;5091097;28;20034;-73
2022/01/05 01:17:46;;;;;;;10.25;2.75;;;;;;;2.33;86.71;100047.25;5091044;28;20028;-73
2022/01/05 01:20:12;;;;;;;7.50;1.90;;;;;;;2.30;86.90;100052.81;5091067;28;20017;-73
2022/01/05 01:22:37;;;;;;;5.78;1.73;;;;;;;2.31;86.78;100059.72;5070301;28;20062;-73
2022/01/05 01:25:05;;;;;;;8.93;2.45;;;;;;;2.23;86.71;100054.47;5072035;28;20044;-73
2022/01/05 01:27:31;;;;;;;5.57;1.95;;;;;;;2.22;86.99;100051.97;5070222;28;20074;-73
2022/01/05 01:29:56;;;;;;;11.55;2.67;;;;;;;2.18;87.16;100057.56;5090758;28;20032;-73
2022/01/05 01:32:22;;;;;;;8.27;3.17;;;;;;;2.12;86.88;100055.59;5091201;28;20622;-74
2022/01/05 01:34:47;;;;;;;5.63;2.35;;;;;;;2.09;87.24;100050.63;5090952;28;20107;-73
2022/01/05 01:37:13;;;;;;;5.38;1.50;;;;;;;2.09;87.25;100060.34;5090732;28;20086;-73
2022/01/05 01:39:39;;;;;;;5.75;2.35;;;;;;;2.08;86.43;100067.41;5090705;28;20031;-73
2022/01/05 01:42:04;;;;;;;7.03;2.92;;;;;;;2.05;86.70;100059.84;5090701;28;20028;-73
2022/01/05 01:44:30;;;;;;;9.68;3.67;;;;;;;2.02;86.47;100061.97;5090747;28;20028;-73
2022/01/05 01:46:55;;;;;;;8.07;2.60;;;;;;;1.98;86.85;100069.34;5090625;28;20097;-74
2022/01/05 01:49:21;;;;;;;8.63;3.03;;;;;;;1.95;87.16;100069.69;5089029;28;20030;-73
2022/01/05 01:51:46;;;;;;;10.32;2.53;;;;;;;1.93;87.04;100069.00;5090245;28;20042;-73
2022/01/05 01:54:12;;;;;;;6.80;1.88;;;;;;;1.89;87.54;100067.69;5090297;28;20044;-73
2022/01/05 01:56:38;;;;;;;6.35;2.00;;;;;;;1.84;87.30;100068.16;5090320;28;20027;-73
2022/01/05 01:59:05;;;;;;;9.80;2.65;;;;;;;1.82;87.48;100069.31;5090390;28;20069;-73
2022/01/05 02:01:30;;;;;;;8.63;2.00;;;;;;;1.79;87.64;100059.94;5090262;28;20028;-73
2022/01/05 02:03:56;;;;;;;10.18;3.97;;;;;;;1.77;87.43;100063.72;5089585;28;20050;-73
2022/01/05 02:06:21;;;;;;;8.63;2.30;;;;;;;1.74;87.46;100070.09;5090272;28;20073;-74
2022/01/05 02:08:48;;;;;;;3.70;1.60;;;;;;;1.72;87.22;100056.28;5090066;28;20036;-74
2022/01/05 02:11:13;;;;;;;14.00;4.32;;;;;;;1.71;87.15;100071.25;5090067;28;20024;-73
2022/01/05 02:13:40;;;;;;;8.35;4.03;;;;;;;1.68;87.66;100061.06;5090106;28;20043;-73
2022/01/05 02:16:06;;;;;;;8.80;3.17;;;;;;;1.67;87.87;100056.75;5090113;28;20024;-73
2022/01/05 02:21:09;;;;;;;6.80;1.85;;;;;;;1.64;87.37;100059.72;5090293;28;20409;-73
2022/01/05 02:23:36;;;;;;;9.52;2.20;;;;;;;1.58;87.28;100054.28;5088370;28;20122;-73
2022/01/05 02:26:06;;;;;;;5.65;1.70;;;;;;;1.59;86.85;100069.06;5089859;28;20475;-73
2022/01/05 02:28:32;;;;;;;12.48;2.80;;;;;;;1.60;87.20;100071.53;5089728;28;20024;-74
2022/01/05 02:30:57;;;;;;;6.75;2.22;;;;;;;1.59;87.21;100072.50;5089703;28;20501;-73
2022/01/05 02:33:24;;;;;;;5.72;1.83;;;;;;;1.58;87.30;100076.13;5089617;28;20028;-73
2022/01/05 02:35:51;;;;;;;12.43;4.07;;;;;;;1.57;87.20;100077.09;5089516;28;20122;-73
2022/01/05 02:38:21;;;;;;;5.00;1.73;;;;;;;1.56;87.02;100080.69;5089532;28;20491;-73
2022/01/05 02:40:50;;;;;;;8.75;2.30;;;;;;;1.54;87.13;100080.03;5089623;28;20029;-73
2022/01/05 02:43:15;;;;;;;6.53;2.70;;;;;;;1.49;86.99;100083.16;5088279;28;20060;-74
2022/01/05 02:45:41;;;;;;;6.65;3.17;;;;;;;1.42;86.84;100070.78;5088181;28;20116;-73
2022/01/05 02:48:06;;;;;;;6.57;2.53;;;;;;;1.48;86.92;100083.28;5084571;28;20471;-73
2022/01/05 02:50:32;;;;;;;6.47;2.50;;;;;;;1.48;86.83;100086.75;5069931;28;20039;-73
2022/01/05 02:52:57;;;;;;;6.85;1.75;;;;;;;1.46;86.86;100088.69;5069894;28;20059;-74
2022/01/05 02:55:23;;;;;;;15.50;4.00;;;;;;;1.44;86.70;100095.94;5069942;28;20040;-73
2022/01/05 02:57:48;;;;;;;6.25;2.42;;;;;;;1.40;86.73;100094.59;5069866;28;20384;-74
2022/01/05 03:00:16;;;;;;;8.32;2.95;;;;;;;1.39;86.59;100099.97;5069877;28;20020;-73
2022/01/05 03:02:41;;;;;;;8.75;2.47;;;;;;;1.38;86.32;100108.84;5089167;28;20675;-73
2022/01/05 03:05:08;;;;;;;7.78;2.58;;;;;;;1.37;86.42;100107.22;5089400;28;20070;-74
2022/01/05 03:07:38;;;;;;;16.92;3.35;;;;;;;1.36;86.86;100105.56;5089110;28;20024;-73
2022/01/05 03:10:05;;;;;;;4.32;2.17;;;;;;;1.33;86.71;100116.38;5089171;28;20040;-74
2022/01/05 03:12:30;;;;;;;7.40;1.95;;;;;;;1.29;86.89;100123.75;5089037;28;20115;-73
2022/01/05 03:14:56;;;;;;;7.95;1.83;;;;;;;1.24;86.94;100121.56;5088905;28;20119;-74
2022/01/05 03:17:21;;;;;;;7.10;2.80;;;;;;;1.26;87.10;100122.25;5088947;28;20043;-74
2022/01/05 03:19:46;;;;;;;7.88;2.25;;;;;;;1.24;87.09;100123.38;5088948;28;20582;-73
2022/01/05 03:22:12;;;;;;;8.75;1.92;;;;;;;1.22;87.14;100127.97;5087608;28;20039;-73
2022/01/05 03:24:37;;;;;;;5.20;2.20;;;;;;;1.19;87.19;100133.53;5088972;28;20032;-73
2022/01/05 03:27:03;;;;;;;17.67;4.28;;;;;;;1.18;86.91;100132.72;5087858;28;20093;-73
2022/01/05 03:29:28;;;;;;;6.38;1.55;;;;;;;1.19;86.72;100133.53;5088797;28;20378;-73
2022/01/05 03:31:54;;;;;;;4.28;1.90;;;;;;;1.16;86.94;100132.03;5089093;28;20032;-74
2022/01/05 03:34:20;;;;;;;8.48;2.35;;;;;;;1.16;86.75;100125.97;5088874;28;20118;-73
2022/01/05 03:36:46;;;;;;;11.52;3.00;;;;;;;1.18;86.31;100137.13;5088777;28;20139;-73
2022/01/05 03:39:12;;;;;;;5.72;2.00;;;;;;;1.13;86.62;100134.97;5089119;28;20020;-73
2022/01/05 03:41:37;;;;;;;9.25;1.85;;;;;;;1.14;86.48;100141.84;5088901;28;20395;-73
2022/01/05 03:44:03;;;;;;;9.02;1.90;;;;;;;1.12;86.29;100143.00;5088753;28;20028;-73
2022/01/05 03:46:29;;;;;;;5.22;1.60;;;;;;;1.14;86.70;100144.47;5088875;28;20052;-73
2022/01/05 03:48:54;;;;;;;9.98;2.30;;;;;;;1.20;86.73;100153.56;5088660;28;20120;-73
2022/01/05 03:51:20;;;;;;;13.43;3.42;;;;;;;1.23;86.05;100150.59;5088738;28;20125;-73
2022/01/05 03:53:45;;;;;;;13.98;3.60;;;;;;;1.25;86.16;100152.09;5087424;28;20070;-73
2022/01/05 03:56:11;;;;;;;6.22;1.70;;;;;;;1.27;86.20;100152.78;5087375;28;20062;-73
2022/01/05 03:58:36;;;;;;;10.90;2.47;;;;;;;1.37;86.03;100151.88;5088619;28;20024;-73
2022/01/05 04:01:02;;;;;;;7.15;2.15;;;;;;;1.38;85.93;100151.72;5087455;28;20037;-73
2022/01/05 04:03:27;;;;;;;12.27;3.50;;;;;;;1.39;85.97;100153.38;5088688;28;20031;-73
2022/01/05 04:05:52;;;;;;;11.82;2.95;;;;;;;1.42;86.05;100157.50;5088784;28;20116;-73
2022/01/05 04:08:18;;;;;;;7.10;1.55;;;;;;;1.41;85.69;100148.75;5088555;28;20063;-73
2022/01/05 04:10:43;;;;;;;9.60;2.53;;;;;;;1.41;85.99;100161.09;5087250;28;20028;-73
2022/01/05 04:13:09;;;;;;;7.45;1.58;;;;;;;1.37;86.06;100165.84;5088543;28;20440;-73
2022/01/05 04:15:34;;;;;;;8.65;3.83;;;;;;;1.38;86.25;100164.84;5088538;28;20471;-73
2022/01/05 04:18:00;;;;;;;9.57;2.40;;;;;;;1.35;86.18;100165.16;5088671;28;20502;-73
2022/01/05 04:20:25;;;;;;;8.27;2.40;;;;;;;1.31;86.00;100161.19;5088448;28;20111;-74
2022/01/05 04:22:51;;;;;;;6.45;3.00;;;;;;;1.30;86.03;100170.84;5088395;28;20376;-73
2022/01/05 04:25:16;;;;;;;5.28;2.25;;;;;;;1.26;86.42;100168.72;5087203;28;20127;-73
2022/01/05 04:27:42;;;;;;;5.70;2.47;;;;;;;1.23;86.27;100166.38;5091830;28;20493;-73
2022/01/05 04:30:09;;;;;;;8.10;2.70;;;;;;;1.17;86.52;100169.63;5091931;28;20528;-73
2022/01/05 04:32:35;;;;;;;11.95;2.47;;;;;;;1.19;86.60;100171.13;5092026;28;20031;-74
2022/01/05 04:35:01;;;;;;;9.20;3.78;;;;;;;1.15;86.63;100177.63;5092294;28;20039;-73
2022/01/05 04:37:27;;;;;;;12.70;2.58;;;;;;;1.14;86.52;100177.81;5070889;28;20206;-73
2022/01/05 04:39:52;;;;;;;6.63;2.08;;;;;;;1.12;86.60;100183.19;5072442;28;20031;-73
2022/01/05 04:42:18;;;;;;;12.93;2.95;;;;;;;1.11;86.84;100173.69;5072412;28;20032;-73
2022/01/05 04:44:43;;;;;;;6.50;2.40;;;;;;;1.08;86.54;100177.44;5072311;28;20043;-73
2022/01/05 04:47:09;;;;;;;10.25;2.85;;;;;;;1.12;87.06;100191.06;5072441;28;20396;-73
2022/01/05 04:49:35;;;;;;;7.57;2.60;;;;;;;1.08;87.04;100187.13;5072176;28;20503;-73
2022/01/05 04:52:00;;;;;;;8.00;3.05;;;;;;;1.16;87.17;100196.88;5091216;28;20043;-73
2022/01/05 04:54:26;;;;;;;8.85;2.10;;;;;;;1.23;87.01;100200.50;5091854;28;20096;-73
2022/01/05 04:56:51;;;;;;;9.88;2.33;;;;;;;1.26;86.93;100190.56;5091557;28;20450;-73
2022/01/05 04:59:17;;;;;;;7.45;2.33;;;;;;;1.34;87.29;100189.78;5091423;28;20110;-73
2022/01/05 05:01:42;;;;;;;7.57;2.03;;;;;;;1.41;87.16;100189.97;5091542;28;20035;-73
2022/01/05 05:04:08;;;;;;;10.48;2.90;;;;;;;1.46;86.75;100193.78;5091542;28;20036;-73
2022/01/05 05:06:33;;;;;;;12.80;3.25;;;;;;;1.53;86.81;100194.84;5091517;28;20134;-73
2022/01/05 05:08:59;;;;;;;4.38;1.45;;;;;;;1.60;86.65;100192.44;5071912;28;20056;-73
2022/01/05 05:11:24;;;;;;;3.25;1.75;;;;;;;1.67;86.94;100195.25;5081296;28;20605;-73
2022/01/05 05:13:49;;;;;;;7.80;2.00;;;;;;;1.70;86.88;100197.56;5091120;28;20031;-73
2022/01/05 05:16:15;;;;;;;9.05;2.55;;;;;;;1.77;86.43;100188.06;5091161;28;20031;-73
2022/01/05 05:18:40;;;;;;;5.38;1.75;;;;;;;1.80;86.70;100190.38;5091140;28;20024;-73
2022/01/05 05:21:06;;;;;;;10.73;2.42;;;;;;;1.86;86.25;100202.94;5089807;28;20064;-73
2022/01/05 05:23:31;;;;;;;5.68;2.55;;;;;;;1.90;86.06;100196.38;5091134;28;20085;-73
2022/01/05 05:25:57;;;;;;;8.15;2.00;;;;;;;1.93;85.97;100190.78;5091040;28;20031;-74
2022/01/05 05:28:22;;;;;;;7.88;2.22;;;;;;;1.91;86.63;100170.88;5090816;28;20105;-72
2022/01/05 05:30:47;;;;;;;8.55;2.35;;;;;;;1.95;86.50;100178.31;5090841;28;20032;-73
2022/01/05 05:33:13;;;;;;;7.55;2.38;;;;;;;2.03;85.98;100177.53;5089586;28;20035;-73
2022/01/05 05:35:42;;;;;;;7.50;1.95;;;;;;;2.08;86.14;100184.94;5090535;28;20027;-73
2022/01/05 05:38:08;;;;;;;4.95;2.20;;;;;;;2.12;86.27;100187.13;5090007;28;20100;-73
2022/01/05 05:40:34;;;;;;;14.73;2.58;;;;;;;2.16;85.90;100182.34;5090921;28;20574;-73
2022/01/05 05:42:59;;;;;;;8.63;2.38;;;;;;;2.13;86.64;100170.34;5089373;28;20085;-74
2022/01/05 05:45:25;;;;;;;11.18;1.88;;;;;;;2.14;86.42;100185.13;5090647;28;20047;-74
2022/01/05 05:47:50;;;;;;;11.43;2.40;;;;;;;2.21;86.72;100184.50;5090571;28;20027;-73
2022/01/05 05:50:16;;;;;;;14.63;4.57;;;;;;;2.15;86.81;100178.91;5090446;28;20493;-73
2022/01/05 05:52:41;;;;;;;12.07;3.70;;;;;;;2.21;86.34;100181.88;5090545;28;20127;-73
2022/01/05 05:55:07;;;;;;;11.18;2.97;;;;;;;2.22;86.71;100194.03;5090317;28;20075;-73
2022/01/05 05:57:33;;;;;;;7.05;2.40;;;;;;;2.19;86.92;100190.72;5090299;28;20501;-73
2022/01/05 05:59:58;;;;;;;13.60;3.00;;;;;;;2.15;86.51;100185.97;5089061;28;20075;-73
2022/01/05 06:02:23;;;;;;;8.23;2.70;;;;;;;2.23;86.52;100198.31;5090297;28;20387;-73
2022/01/05 06:04:48;;;;;;;4.63;1.83;;;;;;;2.28;86.57;100196.03;5090250;28;20032;-73
2022/01/05 06:07:14;;;;;;;4.70;1.58;;;;;;;2.30;86.98;100201.97;5090184;28;20073;-74
2022/01/05 06:09:39;;;;;;;7.15;2.22;;;;;;;2.23;86.61;100186.00;5074943;28;20035;-73
2022/01/05 06:12:05;;;;;;;8.93;2.17;;;;;;;2.27;86.99;100194.38;5090052;28;20111;-73
2022/01/05 06:14:30;;;;;;;13.88;1.98;;;;;;;2.23;87.15;100201.78;5083210;28;20475;-73
2022/01/05 06:16:56;;;;;;;13.85;3.50;;;;;;;2.16;87.11;100200.75;5070645;28;20038;-73
2022/01/05 06:19:21;;;;;;;12.63;2.22;;;;;;;2.11;87.34;100208.31;5070541;28;20024;-73
2022/01/05 06:21:47;;;;;;;11.02;2.40;;;;;;;2.05;87.31;100214.19;5070554;28;20058;-73
2022/01/05 06:24:13;;;;;;;7.65;1.42;;;;;;;2.00;87.83;100214.66;5070383;28;20036;-73
2022/01/05 06:26:38;;;;;;;9.30;2.80;;;;;;;2.02;87.69;100217.97;5070316;28;20476;-73
2022/01/05 06:29:04;;;;;;;8.05;2.83;;;;;;;2.09;88.27;100218.16;5089615;28;20039;-73
2022/01/05 06:31:29;;;;;;;5.38;1.63;;;;;;;2.11;88.18;100226.72;5089950;28;20058;-73
2022/01/05 06:33:55;;;;;;;7.63;2.05;;;;;;;2.12;88.23;100234.47;5089689;28;20086;-73
2022/01/05 06:36:20;;;;;;;11.10;2.38;;;;;;;2.14;88.29;100229.03;5089430;28;20052;-73
2022/01/05 06:38:46;;;;;;;6.82;2.97;;;;;;;2.13;88.51;100220.31;5089613;28;20036;-73
2022/01/05 06:41:11;;;;;;;16.38;3.65;;;;;;;2.18;88.39;100231.19;5089483;28;20077;-73
2022/01/05 06:43:36;;;;;;;9.75;2.50;;;;;;;2.17;88.30;100229.56;5088086;28;20028;-73
2022/01/05 06:46:02;;;;;;;14.30;4.45;;;;;;;2.15;88.34;100233.31;5089472;28;20067;-73
2022/01/05 06:48:27;;;;;;;9.23;3.50;;;;;;;2.13;88.51;100230.84;5072553;28;20059;-74
2022/01/05 06:50:53;;;;;;;8.70;2.03;;;;;;;2.09;88.36;100233.94;5069764;28;20119;-71
2022/01/05 06:53:18;;;;;;;8.30;2.92;;;;;;;2.04;88.84;100244.91;5069935;28;20054;-73
2022/01/05 06:55:43;;;;;;;15.27;3.45;;;;;;;2.00;88.90;100240.97;5089230;28;20085;-73
2022/01/05 06:58:09;;;;;;;21.67;5.13;;;;;;;2.04;88.69;100252.81;5089323;28;20112;-73
2022/01/05 07:00:34;;;;;;;9.55;3.30;;;;;;;2.03;89.19;100251.16;5089563;28;20387;-74
2022/01/05 07:03:00;;;;;;;31.77;6.10;;;;;;;2.05;89.00;100254.47;5089126;28;20081;-74
2022/01/05 07:05:26;;;;;;;15.02;2.92;;;;;;;2.05;89.06;100270.25;5089270;28;20047;-74
2022/01/05 07:07:51;;;;;;;17.20;3.75;;;;;;;2.07;89.30;100267.44;5089181;28;20020;-74
2022/01/05 07:10:17;;;;;;;13.23;4.38;;;;;;;2.08;88.91;100269.13;5088928;28;20028;-74
2022/01/05 07:12:43;;;;;;;11.27;3.08;;;;;;;2.09;89.11;100266.31;5089263;28;20035;-72
2022/01/05 07:15:10;;;;;;;9.35;3.83;;;;;;;2.08;89.10;100266.47;5089191;28;20019;-71
2022/01/05 07:17:35;;;;;;;12.70;2.53;;;;;;;2.11;89.52;100267.00;5088995;28;20101;-71
2022/01/05 07:20:01;;;;;;;9.90;2.88;;;;;;;2.14;89.31;100274.56;5088946;28;20020;-73
2022/01/05 07:22:26;;;;;;;15.20;5.00;;;;;;;2.18;89.56;100275.09;5088906;28;20028;-72
2022/01/05 07:24:53;;;;;;;14.23;3.05;;;;;;;2.21;89.28;100281.84;5089222;28;20028;-72
2022/01/05 07:27:18;;;;;;;10.27;3.45;;;;;;;2.24;89.37;100284.97;5088872;28;20043;-74
2022/01/05 07:29:44;;;;;;;10.02;3.45;;;;;;;2.25;89.46;100270.00;5088880;28;20028;-72
2022/01/05 07:32:09;;;;;;;18.10;3.95;;;;;;;2.31;89.67;100277.31;5088878;28;20048;-74
2022/01/05 07:34:35;;;;;;;10.63;3.83;;;;;;;2.32;89.58;100285.03;5088817;28;20024;-72
2022/01/05 07:37:00;;;;;;;15.70;5.32;;;;;;;2.35;89.76;100281.25;5088782;28;20052;-72
2022/01/05 07:39:25;;;;;;;16.05;5.32;;;;;;;2.34;89.56;100287.50;5089142;28;20103;-72
2022/01/05 07:41:51;;;;;;;8.98;2.67;;;;;;;2.38;89.65;100289.69;5087475;28;20468;-72
2022/01/05 07:44:16;;;;;;;14.25;2.70;;;;;;;2.41;89.50;100285.88;5088999;28;20074;-72
2022/01/05 07:46:41;;;;;;;12.80;2.88;;;;;;;2.37;89.87;100274.84;5088844;28;20027;-74
2022/01/05 07:49:07;;;;;;;10.40;2.72;;;;;;;2.43;89.54;100281.28;5088703;28;20072;-74
2022/01/05 07:51:33;;;;;;;8.27;2.70;;;;;;;2.41;89.42;100286.72;5088777;28;20039;-71
2022/01/05 07:53:59;;;;;;;12.18;2.85;;;;;;;2.49;89.12;100291.19;5088751;28;20043;-74
2022/01/05 07:56:24;;;;;;;6.95;2.10;;;;;;;2.51;89.69;100302.38;5088703;28;20395;-71
2022/01/05 07:58:50;;;;;;;8.52;4.07;;;;;;;2.55;89.49;100308.97;5088584;28;20115;-72
2022/01/05 08:01:18;;;;;;;9.05;2.55;;;;;;;2.59;89.51;100304.22;5089339;28;20043;-72
2022/01/05 08:03:47;;;;;;;14.32;4.05;;;;;;;2.61;89.24;100310.16;5092652;28;20035;-71
2022/01/05 08:06:13;;;;;;;11.25;3.47;;;;;;;2.69;89.18;100318.09;5091415;28;20063;-72
2022/01/05 08:08:38;;;;;;;20.83;2.90;;;;;;;2.71;89.48;100317.94;5092732;28;20104;-72
2022/01/05 08:11:04;;;;;;;9.55;3.42;;;;;;;2.77;89.22;100315.47;5086660;28;20388;-72
2022/01/05 08:13:29;;;;;;;3.55;1.98;;;;;;;2.86;88.33;100324.25;5073267;28;20117;-71
2022/01/05 08:15:55;;;;;;;11.30;3.78;;;;;;;3.01;88.36;100314.75;5073154;28;20121;-72
2022/01/05 08:18:21;;;;;;;11.48;2.03;;;;;;;3.14;88.03;100310.81;5073049;28;20138;-72
2022/01/05 08:20:47;;;;;;;12.80;4.70;;;;;;;3.22;87.41;100293.22;5072962;28;20047;-71
2022/01/05 08:23:16;;;;;;;8.02;2.00;;;;;;;3.28;86.85;100308.38;5092322;28;20028;-72
2022/01/05 08:25:42;;;;;;;6.30;2.50;;;;;;;3.34;86.99;100295.53;5088021;28;20064;-73
2022/01/05 08:28:08;;;;;;;11.73;3.40;;;;;;;3.39;86.23;100307.22;5072789;28;20056;-74
2022/01/05 08:30:35;;;;;;;7.82;3.65;;;;;;;3.39;86.09;100304.59;5092100;28;20032;-71
2022/01/05 08:33:03;;;;;;;8.13;2.10;;;;;;;3.36;86.01;100304.94;5092240;28;20084;-72
2022/01/05 08:35:29;;;;;;;5.00;2.22;;;;;;;3.40;86.11;100322.03;5092248;28;20032;-72
2022/01/05 08:37:55;;;;;;;8.88;2.67;;;;;;;3.42;85.55;100327.97;5091811;28;20056;-72
2022/01/05 08:40:23;;;;;;;10.55;3.25;;;;;;;3.42;85.78;100327.97;5092089;28;20463;-72
2022/01/05 08:42:48;;;;;;;13.52;4.40;;;;;;;3.42;85.49;100324.53;5077445;28;20048;-72
2022/01/05 08:45:16;;;;;;;11.43;3.03;;;;;;;3.42;85.47;100327.16;5072841;28;20060;-69
2022/01/05 08:47:47;;;;;;;11.90;2.88;;;;;;;3.41;85.45;100333.44;5075370;28;20031;-74
2022/01/05 08:50:16;;;;;;;;;;;;;;;3.44;86.52;100327.84;5079383;28;20064;-72
2022/01/05 08:52:42;;;;;;;17.17;4.90;;;;;;;3.47;86.02;100335.41;5091487;28;19912;-72
2022/01/05 08:55:08;;;;;;;6.18;2.72;;;;;;;3.55;86.20;100327.50;5092147;28;20053;-72
2022/01/05 08:57:33;;;;;;;8.02;2.60;;;;;;;3.74;85.99;100347.44;5091550;28;20116;-71
2022/01/05 08:59:59;;;;;;;13.10;2.45;;;;;;;3.94;85.71;100338.22;5079388;28;20027;-71
2022/01/05 09:02:24;;;;;;;7.97;2.60;;;;;;;4.17;85.11;100342.81;5072243;28;20056;-72
2022/01/05 09:04:52;;;;;;;4.80;2.38;;;;;;;4.32;83.97;100351.72;5072226;28;20136;-71
2022/01/05 09:07:18;;;;;;;8.60;1.52;;;;;;;4.37;83.29;100349.34;5091400;28;20028;-72
2022/01/05 09:09:44;;;;;;;10.15;2.47;;;;;;;4.37;83.20;100349.34;5084000;28;20048;-72
2022/01/05 09:12:10;;;;;;;9.50;3.03;;;;;;;4.32;83.48;100358.78;5071855;28;20505;-72
2022/01/05 09:14:36;;;;;;;11.45;3.65;;;;;;;4.29;83.30;100354.66;5091224;28;20055;-71
2022/01/05 09:17:01;;;;;;;8.20;2.60;;;;;;;4.24;84.13;100351.69;5091226;28;20523;-73
2022/01/05 09:19:28;;;;;;;9.15;2.90;;;;;;;4.23;84.51;100354.53;5088289;28;20037;-73
2022/01/05 09:21:54;;;;;;;9.95;2.53;;;;;;;4.23;84.56;100362.44;5085969;28;20040;-72
2022/01/05 09:24:19;;;;;;;9.32;3.47;;;;;;;4.22;85.90;100361.63;5091297;28;20035;-71
2022/01/05 09:26:44;;;;;;;7.65;2.20;;;;;;;4.21;86.37;100354.69;5091275;28;20039;-73
2022/01/05 09:29:10;;;;;;;12.65;3.05;;;;;;;4.20;86.21;100362.78;5091084;28;20028;-72
2022/01/05 09:31:35;;;;;;;16.00;4.30;;;;;;;4.24;87.01;100386.00;5087460;28;20427;-71
2022/01/05 09:34:01;;;;;;;9.15;2.55;;;;;;;4.30;87.38;100384.53;5071650;28;20032;-72
2022/01/05 09:36:44;;;;;;;11.82;3.08;;;;;;;4.32;86.89;100370.19;5071819;28;20060;-72
2022/01/05 09:41:56;;;;;;;8.00;2.30;;;;;;;4.24;87.17;100380.72;5090883;28;20113;-71
2022/01/05 09:44:30;;;;;;;5.60;2.35;;;;;;;4.27;86.24;100390.13;5090798;28;20433;-71
2022/01/05 09:47:10;;;;;;;14.82;4.28;;;;;;;4.32;86.50;100388.66;5090771;28;20589;-71
2022/01/05 09:49:48;;;;;;;8.68;2.63;;;;;;;4.28;86.42;100392.63;5090743;28;20469;-71
2022/01/05 09:52:14;;;;;;;17.00;4.80;;;;;;;4.28;86.51;100397.91;5090666;28;20020;-71
2022/01/05 09:54:43;;;;;;;6.18;2.60;;;;;;;4.23;86.16;100389.66;5090524;28;20123;-71
2022/01/05 09:57:10;;;;;;;16.40;3.97;;;;;;;4.16;87.02;100394.75;5090540;28;20052;-72
2022/01/05 09:59:36;;;;;;;8.23;1.80;;;;;;;4.15;87.70;100410.78;5089343;28;20051;-72
2022/01/05 10:02:04;;;;;;;10.52;2.80;;;;;;;4.10;88.18;100391.97;5071116;28;20098;-71
2022/01/05 10:04:30;;;;;;;8.35;2.67;;;;;;;4.09;87.81;100404.34;5090540;28;20028;-71
2022/01/05 10:06:56;;;;;;;6.07;2.00;;;;;;;4.13;88.12;100404.84;5090422;28;20024;-72
2022/01/05 10:09:22;;;;;;;9.52;2.38;;;;;;;4.15;87.20;100414.22;5090408;28;20495;-71
2022/01/05 10:11:48;;;;;;;18.50;4.15;;;;;;;4.18;88.03;100413.91;5090147;28;20036;-73
2022/01/05 10:14:13;;;;;;;10.30;2.88;;;;;;;4.21;87.91;100411.91;5079816;28;20051;-73
2022/01/05 10:16:40;;;;;;;10.90;1.75;;;;;;;4.28;88.94;100405.81;5075226;28;20063;-73
2022/01/05 10:19:06;;;;;;;12.52;2.88;;;;;;;4.36;87.59;100407.63;5075507;28;20391;-73
2022/01/05 10:21:41;;;;;;;9.80;2.10;;;;;;;4.49;87.67;100410.56;5073678;28;20070;-73
2022/01/05 10:24:06;;;;;;;12.23;2.38;;;;;;;4.55;86.67;100412.53;5074403;28;20036;-71
2022/01/05 10:26:39;;;;;;;7.28;2.38;;;;;;;4.61;86.67;100408.38;5075522;28;20390;-73
2022/01/05 10:29:06;;;;;;;11.35;2.65;;;;;;;4.67;86.48;100401.63;5074203;28;20429;-72
2022/01/05 10:31:39;;;;;;;7.38;2.17;;;;;;;4.71;86.51;100431.97;5074545;28;20028;-74
2022/01/05 10:34:32;;;;;;;8.52;3.17;;;;;;;4.73;85.98;100435.28;5073863;28;20375;-74
2022/01/05 10:37:05;;;;;;;8.55;2.90;;;;;;;4.71;86.09;100439.91;5059404;28;20450;-72
2022/01/05 10:39:40;;;;;;;9.23;2.08;;;;;;;4.74;85.61;100440.41;5074274;28;20025;-72
2022/01/05 10:42:07;;;;;;;8.82;2.47;;;;;;;4.75;85.58;100436.75;5074753;28;20484;-72
2022/01/05 10:44:33;;;;;;;12.13;2.47;;;;;;;4.74;85.18;100436.91;5073603;28;20032;-73
2022/01/05 10:47:00;;;;;;;12.43;4.38;;;;;;;4.79;85.78;100427.53;5073700;28;20030;-73
2022/01/05 10:49:31;;;;;;;16.67;2.63;;;;;;;4.88;84.60;100446.00;5074876;28;20039;-74
2022/01/05 10:52:17;;;;;;;7.80;2.22;;;;;;;4.86;85.28;100442.69;5074868;28;20046;-74
2022/01/05 10:54:42;;;;;;;3.83;2.45;;;;;;;4.96;84.22;100444.13;5073725;28;20161;-73
2022/01/05 10:57:09;;;;;;;9.27;2.45;;;;;;;5.04;84.14;100433.53;5073272;28;20111;-72
2022/01/05 10:59:42;;;;;;;11.65;2.50;;;;;;;5.09;84.93;100445.44;5074157;28;20077;-72
2022/01/05 11:02:28;;;;;;;11.27;3.03;;;;;;;5.10;84.94;100466.38;5074617;28;20047;-73
2022/01/05 11:05:14;;;;;;;6.50;2.28;;;;;;;5.13;84.45;100471.31;5073477;28;20047;-71
2022/01/05 11:07:42;;;;;;;11.80;3.80;;;;;;;5.14;83.53;100456.31;5075340;28;20032;-72
2022/01/05 11:10:18;;;;;;;10.60;2.30;;;;;;;5.18;83.88;100466.34;5073352;28;20060;-72
2022/01/05 11:12:52;;;;;;;10.32;2.63;;;;;;;5.18;83.92;100463.72;5088934;28;20020;-73
2022/01/05 11:15:24;;;;;;;19.95;3.55;;;;;;;5.22;82.91;100465.03;5088053;28;20049;-72
2022/01/05 11:18:04;;;;;;;9.55;2.15;;;;;;;5.17;83.60;100475.28;5089445;28;20047;-72
2022/01/05 11:20:30;;;;;;;12.88;3.55;;;;;;;5.16;83.35;100475.44;5089315;28;20020;-72
2022/01/05 11:22:55;;;;;;;15.05;2.70;;;;;;;5.19;83.83;100480.41;5089148;28;20054;-72
2022/01/05 11:25:21;;;;;;;10.23;2.58;;;;;;;5.26;84.26;100474.25;5089205;28;20494;-72
2022/01/05 11:27:46;;;;;;;10.60;2.90;;;;;;;5.36;84.29;100441.50;5089163;28;20032;-72
2022/01/05 11:30:12;;;;;;;9.85;2.95;;;;;;;5.37;84.20;100481.00;5087734;28;20032;-73
2022/01/05 11:32:38;;;;;;;10.23;2.92;;;;;;;5.40;83.22;100491.25;5068489;28;20025;-73